Time;durP1;ratioP1;P1;durP2;ratioP2;P2;SDS_P1;SDS_P2;PMS_P1;PMS_P2;Temp;Humidity;BMP_temperature;BMP_pressure;BME280_temperature;BME280_humidity;BME280_pressure;Samples;Min_cycle;Max_cycle;Signal;HPM_P1;HPM_P2
2023/08/05 00:01:13;;;;;;;8.65;5.43;;;;;;;;;;5029625;28;20277;-64
2023/08/05 00:03:41;;;;;;;6.80;5.82;;;;;;;;;;5029860;28;20321;-64
2023/08/05 00:06:09;;;;;;;6.70;5.65;;;;;;;;;;5029185;28;20680;-63
2023/08/05 00:08:36;;;;;;;6.63;6.00;;;;;;;;;;5029927;28;20211;-64
2023/08/05 00:11:02;;;;;;;6.05;5.30;;;;;;;;;;5029503;28;20467;-63
2023/08/05 00:13:34;;;;;;;7.00;5.90;;;;;;;;;;5029842;28;20214;-63
2023/08/05 00:16:00;;;;;;;6.95;6.22;;;;;;;;;;5019063;28;20199;-64
2023/08/05 00:18:27;;;;;;;6.15;5.65;;;;;;;;;;5029920;28;20204;-63
2023/08/05 00:20:53;;;;;;;7.75;6.70;;;;;;;;;;5029766;28;20281;-63
2023/08/05 00:23:21;;;;;;;6.43;5.82;;;;;;;;;;5029534;28;20231;-64
2023/08/05 00:25:47;;;;;;;6.47;5.78;;;;;;;;;;5027526;28;20195;-63
2023/08/05 00:28:14;;;;;;;5.93;5.53;;;;;;;;;;5031964;28;20231;-63
2023/08/05 00:30:40;;;;;;;6.95;6.28;;;;;;;;;;5032941;28;20203;-63
2023/08/05 00:33:07;;;;;;;7.70;5.35;;;;;;;;;;5033077;28;20257;-63
2023/08/05 00:35:33;;;;;;;6.38;5.45;;;;;;;;;;5033506;28;20203;-64
2023/08/05 00:38:00;;;;;;;7.35;5.97;;;;;;;;;;5032697;28;20698;-63
2023/08/05 00:40:27;;;;;;;10.50;6.20;;;;;;;;;;5033940;28;20662;-63
2023/08/05 00:42:54;;;;;;;7.22;5.90;;;;;;;;;;5032891;28;20691;-64
2023/08/05 00:45:21;;;;;;;6.65;5.57;;;;;;;;;;5032810;28;20199;-64
2023/08/05 00:47:47;;;;;;;11.73;6.72;;;;;;;;;;5033354;28;20207;-64
2023/08/05 00:50:14;;;;;;;8.00;5.50;;;;;;;;;;5033102;28;20255;-64
2023/08/05 00:52:41;;;;;;;6.22;5.57;;;;;;;;;;5032956;28;20273;-63
2023/08/05 00:55:08;;;;;;;6.72;6.22;;;;;;;;;;5033056;28;20203;-64
2023/08/05 00:57:36;;;;;;;7.60;5.93;;;;;;;;;;5032910;28;20227;-63
2023/08/05 01:00:02;;;;;;;6.90;6.30;;;;;;;;;;5032757;28;20228;-64
2023/08/05 01:02:29;;;;;;;6.35;5.85;;;;;;;;;;5032095;28;20204;-64
2023/08/05 01:04:56;;;;;;;10.35;6.22;;;;;;;;;;5032980;28;20281;-64
2023/08/05 01:07:23;;;;;;;6.47;5.93;;;;;;;;;;5032694;28;20200;-64
2023/08/05 01:09:49;;;;;;;7.32;5.72;;;;;;;;;;5033173;28;20235;-63
2023/08/05 01:12:16;;;;;;;6.38;5.85;;;;;;;;;;5032190;28;20206;-63
2023/08/05 01:14:44;;;;;;;7.28;6.68;;;;;;;;;;5031836;28;20199;-64
2023/08/05 01:17:10;;;;;;;6.35;5.85;;;;;;;;;;5032543;28;20208;-64
2023/08/05 01:19:37;;;;;;;6.10;5.70;;;;;;;;;;5032423;28;20203;-64
2023/08/05 01:22:07;;;;;;;5.47;5.18;;;;;;;;;;5032135;28;20231;-64
2023/08/05 01:24:37;;;;;;;5.95;5.45;;;;;;;;;;5032786;28;20243;-64
2023/08/05 01:27:06;;;;;;;6.50;6.10;;;;;;;;;;5032537;28;20235;-63
2023/08/05 01:29:33;;;;;;;6.72;6.05;;;;;;;;;;5032565;28;20207;-64
2023/08/05 01:31:59;;;;;;;6.20;5.70;;;;;;;;;;5032431;28;20195;-63
2023/08/05 01:34:26;;;;;;;9.30;5.60;;;;;;;;;;5032304;28;20199;-63
2023/08/05 01:36:52;;;;;;;6.20;5.82;;;;;;;;;;5032217;28;20316;-64
2023/08/05 01:39:19;;;;;;;7.15;6.65;;;;;;;;;;5031384;28;20203;-63
2023/08/05 01:41:45;;;;;;;6.47;5.95;;;;;;;;;;5032326;28;20301;-63
2023/08/05 01:44:13;;;;;;;5.93;5.40;;;;;;;;;;5031746;28;20235;-63
2023/08/05 01:46:39;;;;;;;5.85;5.45;;;;;;;;;;5032210;28;20207;-63
2023/08/05 01:49:06;;;;;;;6.60;5.95;;;;;;;;;;5031568;28;20747;-63
2023/08/05 01:51:32;;;;;;;5.97;5.57;;;;;;;;;;5032026;28;20196;-63
2023/08/05 01:53:59;;;;;;;6.00;5.60;;;;;;;;;;5032021;28;20200;-64
2023/08/05 01:56:25;;;;;;;6.97;5.57;;;;;;;;;;5032077;28;20208;-64
2023/08/05 01:58:51;;;;;;;6.18;5.47;;;;;;;;;;5031744;28;20231;-63
2023/08/05 02:01:19;;;;;;;6.68;6.32;;;;;;;;;;5032033;28;20223;-63
2023/08/05 02:03:46;;;;;;;7.15;6.50;;;;;;;25.08;nan;94549.50;5031188;28;20243;-63
2023/08/05 02:06:14;;;;;;;6.15;5.68;;;;;;;;;;5032174;28;20203;-63
2023/08/05 02:08:40;;;;;;;6.65;5.72;;;;;;;;;;5031136;28;20638;-63
2023/08/05 02:11:07;;;;;;;6.57;6.07;;;;;;;;;;5032242;28;20282;-63
2023/08/05 02:13:33;;;;;;;7.15;5.97;;;;;;;;;;5031466;28;20257;-63
2023/08/05 02:16:00;;;;;;;7.28;6.57;;;;;;;;;;5031846;28;20212;-63
2023/08/05 02:18:28;;;;;;;6.53;5.88;;;;;;;;;;5031582;28;20207;-63
2023/08/05 02:20:54;;;;;;;6.68;6.07;;;;;;;;;;5031707;28;20325;-64
2023/08/05 02:23:20;;;;;;;6.53;5.97;;;;;;;;;;5030864;28;20235;-64
2023/08/05 02:25:47;;;;;;;5.53;5.22;;;;;;;;;;5031237;28;20640;-64
2023/08/05 02:28:13;;;;;;;6.18;5.75;;;;;;;;;;5031280;28;20265;-63
2023/08/05 02:30:40;;;;;;;7.18;6.68;;;;;;;;;;5031271;28;20700;-64
2023/08/05 02:33:06;;;;;;;6.75;6.25;;;;;;;;;;5030585;28;20681;-62
2023/08/05 02:35:34;;;;;;;8.88;6.07;;;;;;;;;;5031289;28;20926;-64
2023/08/05 02:38:00;;;;;;;5.97;5.57;;;;;;;;;;5030848;28;20207;-63
2023/08/05 02:40:27;;;;;;;6.45;5.93;;;;;;;;;;5031094;28;20231;-63
2023/08/05 02:42:53;;;;;;;6.15;5.65;;;;;;;;;;5030845;28;20215;-63
2023/08/05 02:45:20;;;;;;;6.40;5.85;;;;;;;;;;5030778;28;20760;-63
2023/08/05 02:47:46;;;;;;;6.38;5.97;;;;;;;;;;5030655;28;20673;-64
2023/08/05 02:50:13;;;;;;;6.97;6.50;;;;;;;;;;5030939;28;20277;-64
2023/08/05 02:52:40;;;;;;;5.57;5.28;;;;;;;;;;5030637;28;20262;-63
2023/08/05 02:55:07;;;;;;;6.38;5.93;;;;;;;;;;5031087;28;20289;-63
2023/08/05 02:57:34;;;;;;;5.80;5.30;;;;;;;;;;5030375;28;20266;-63
2023/08/05 03:00:00;;;;;;;6.60;6.13;;;;;;;;;;5030958;28;20207;-64
2023/08/05 03:02:27;;;;;;;7.03;6.63;;;;;;;;;;5030240;28;20235;-63
2023/08/05 03:04:53;;;;;;;6.35;5.85;;;;;;;;;;5031537;28;20668;-64
2023/08/05 03:07:20;;;;;;;6.07;5.55;;;;;;;;;;5030931;28;20203;-63
2023/08/05 03:09:48;;;;;;;7.45;6.80;;;;;;;;;;5031703;28;20257;-63
2023/08/05 03:12:14;;;;;;;6.50;6.10;;;;;;;;;;5032380;28;20222;-63
2023/08/05 03:14:41;;;;;;;5.88;5.40;;;;;;;;;;5031700;28;20265;-62
2023/08/05 03:17:07;;;;;;;10.48;6.63;;;;;;;;;;5030989;28;20203;-63
2023/08/05 03:19:34;;;;;;;6.53;6.13;;;;;;;;;;5031873;28;20199;-62
2023/08/05 03:22:00;;;;;;;7.65;5.63;;;;;;;;;;5044327;28;20262;-62
2023/08/05 03:24:27;;;;;;;11.55;6.63;;;;;;;;;;5031279;28;20207;-63
2023/08/05 03:26:54;;;;;;;6.55;5.85;;;;;;;;;;5030033;28;20231;-64
2023/08/05 03:29:21;;;;;;;9.02;7.45;;;;;;;;;;5031892;28;20204;-63
2023/08/05 03:31:47;;;;;;;5.55;5.20;;;;;;;;;;5031068;28;20196;-65
2023/08/05 03:34:14;;;;;;;7.32;6.65;;;;;;;;;;5030820;28;20200;-63
2023/08/05 03:36:40;;;;;;;6.32;5.85;;;;;;;;;;5029946;28;20234;-64
2023/08/05 03:39:07;;;;;;;6.32;5.93;;;;;;;;;;5030760;28;20208;-63
2023/08/05 03:41:33;;;;;;;6.30;5.72;;;;;;;24.49;nan;94516.34;5029868;28;20610;-63
2023/08/05 03:44:02;;;;;;;8.05;6.07;;;;;;;;;;5030340;28;20250;-63
2023/08/05 03:46:29;;;;;;;5.88;5.57;;;;;;;24.55;nan;94510.53;5031568;28;20298;-63
2023/08/05 03:48:56;;;;;;;6.05;5.50;;;;;;;;;;5030574;28;20259;-63
2023/08/05 03:51:22;;;;;;;6.50;5.70;;;;;;;;;;5029723;28;20196;-64
2023/08/05 03:53:49;;;;;;;6.47;6.07;;;;;;;;;;5030638;28;20211;-64
2023/08/05 03:56:19;;;;;;;6.15;5.75;;;;;;;;;;5030069;28;20204;-64
2023/08/05 03:58:46;;;;;;;7.00;6.30;;;;;;;;;;5030269;28;20207;-63
2023/08/05 04:01:14;;;;;;;6.15;5.35;;;;;;;;;;5029279;28;20277;-64
2023/08/05 04:03:42;;;;;;;6.65;6.13;;;;;;;;;;5035411;28;20687;-63
2023/08/05 04:06:10;;;;;;;5.85;5.50;;;;;;;;;;5024999;28;20279;-63
2023/08/05 04:08:38;;;;;;;5.35;5.05;;;;;;;;;;5036545;28;20204;-64
2023/08/05 04:11:05;;;;;;;5.80;5.40;;;;;;;;;;5036614;28;20203;-63
2023/08/05 04:13:33;;;;;;;6.45;5.97;;;;;;;;;;5036480;28;20199;-64
2023/08/05 04:16:03;;;;;;;6.40;5.85;;;;;;;;;;5036911;28;20215;-64
2023/08/05 04:18:31;;;;;;;6.10;5.50;;;;;;;;;;5036329;28;20199;-64
2023/08/05 04:20:57;;;;;;;6.07;5.47;;;;;;;;;;5036353;28;20782;-64
2023/08/05 04:23:25;;;;;;;6.28;4.95;;;;;;;;;;5036487;28;20208;-63
2023/08/05 04:25:51;;;;;;;6.03;5.55;;;;;;;;;;5036992;28;20211;-63
2023/08/05 04:28:18;;;;;;;5.78;5.28;;;;;;;;;;5035848;28;20200;-63
2023/08/05 04:30:44;;;;;;;6.25;5.68;;;;;;;;;;5036488;28;20242;-63
2023/08/05 04:33:11;;;;;;;5.20;4.80;;;;;;;;;;5035284;28;20976;-63
2023/08/05 04:35:39;;;;;;;5.97;5.68;;;;;;;;;;5036554;28;20210;-64
2023/08/05 04:38:05;;;;;;;6.22;5.72;;;;;;;;;;5035773;28;20312;-63
2023/08/05 04:40:32;;;;;;;5.13;4.70;;;;;;;;;;5036516;28;20273;-63
2023/08/05 04:42:58;;;;;;;6.55;5.10;;;;;;;;;;5035951;28;20224;-63
2023/08/05 04:45:25;;;;;;;5.70;4.88;;;;;;;;;;5036736;28;20261;-64
2023/08/05 04:47:51;;;;;;;5.85;5.47;;;;;;;;;;5035831;28;20697;-63
2023/08/05 04:50:19;;;;;;;5.45;5.00;;;;;;;;;;5036561;28;20234;-63
2023/08/05 04:52:46;;;;;;;5.65;5.22;;;;;;;;;;5035948;28;20227;-64
2023/08/05 04:55:15;;;;;;;5.70;5.22;;;;;;;;;;5036783;28;20199;-63
2023/08/05 04:57:41;;;;;;;6.18;5.63;;;;;;;;;;5035791;28;20208;-64
2023/08/05 05:00:08;;;;;;;6.70;5.78;;;;;;;;;;5036642;28;20281;-63
2023/08/05 05:02:35;;;;;;;9.23;5.70;;;;;;;;;;5035360;28;20688;-63
2023/08/05 05:05:01;;;;;;;5.68;5.22;;;;;;;;;;5036209;28;20277;-64
2023/08/05 05:07:28;;;;;;;5.50;5.15;;;;;;;;;;5035710;28;20678;-63
2023/08/05 05:09:56;;;;;;;5.55;4.78;;;;;;;;;;5036215;28;20235;-63
2023/08/05 05:12:22;;;;;;;6.03;5.63;;;;;;;;;;5035843;28;20196;-64
2023/08/05 05:14:49;;;;;;;10.40;5.43;;;;;;;;;;5032543;28;20208;-65
2023/08/05 05:17:16;;;;;;;5.53;5.03;;;;;;;;;;5032972;28;20200;-63
2023/08/05 05:19:42;;;;;;;5.15;4.85;;;;;;;;;;5044942;28;20210;-64
2023/08/05 05:22:08;;;;;;;5.75;5.30;;;;;;;;;;5033184;28;20302;-64
2023/08/05 05:24:35;;;;;;;6.32;5.88;;;;;;;;;;5032654;28;20208;-64
2023/08/05 05:27:03;;;;;;;5.57;5.18;;;;;;;;;;5032175;28;20949;-66
2023/08/05 05:29:30;;;;;;;6.13;5.50;;;;;;;;;;5032780;28;20260;-63
2023/08/05 05:31:56;;;;;;;8.38;6.03;;;;;;;;;;5032392;28;20192;-64
2023/08/05 05:34:22;;;;;;;5.72;5.32;;;;;;;;;;5032721;28;20206;-65
2023/08/05 05:36:49;;;;;;;6.57;5.57;;;;;;;;;;5032199;28;20208;-65
2023/08/05 05:39:15;;;;;;;6.03;5.53;;;;;;;;;;5032831;28;20622;-64
2023/08/05 05:41:42;;;;;;;6.30;5.82;;;;;;;;;;5032074;28;20251;-63
2023/08/05 05:44:09;;;;;;;6.22;5.72;;;;;;;;;;5032422;28;20288;-63
2023/08/05 05:46:36;;;;;;;6.32;5.82;;;;;;;;;;5032742;28;20293;-64
2023/08/05 05:49:03;;;;;;;6.60;5.70;;;;;;;;;;5032379;28;20338;-63
2023/08/05 05:51:30;;;;;;;6.25;5.82;;;;;;;;;;5032141;28;20279;-64
2023/08/05 05:53:57;;;;;;;5.55;5.10;;;;;;;;;;5032190;28;20278;-64
2023/08/05 05:56:24;;;;;;;6.32;5.90;;;;;;;;;;5032143;28;20685;-64
2023/08/05 05:58:50;;;;;;;7.47;6.18;;;;;;;;;;5032166;28;20204;-64
2023/08/05 06:01:18;;;;;;;8.43;6.68;;;;;;;;;;5032266;28;20207;-64
2023/08/05 06:03:45;;;;;;;6.30;5.70;;;;;;;;;;5031552;28;20240;-64
2023/08/05 06:06:11;;;;;;;6.18;5.57;;;;;;;;;;5032422;28;20196;-64
2023/08/05 06:08:38;;;;;;;8.23;5.72;;;;;;;;;;5031714;28;20204;-64
2023/08/05 06:11:06;;;;;;;6.50;5.90;;;;;;;;;;5031758;28;20673;-64
2023/08/05 06:13:32;;;;;;;6.10;5.72;;;;;;;;;;5031641;28;20732;-65
2023/08/05 06:15:59;;;;;;;6.22;5.60;;;;;;;;;;5031912;28;20203;-63
2023/08/05 06:18:27;;;;;;;12.07;6.18;;;;;;;;;;5031351;28;20254;-64
2023/08/05 06:20:53;;;;;;;5.75;5.43;;;;;;;;;;5031802;28;20203;-65
2023/08/05 06:23:20;;;;;;;6.38;5.75;;;;;;;;;;5031510;28;20235;-64
2023/08/05 06:25:46;;;;;;;7.10;5.93;;;;;;;;;;5031773;28;20210;-64
2023/08/05 06:28:13;;;;;;;6.53;5.97;;;;;;;;;;5031412;28;20590;-64
2023/08/05 06:30:42;;;;;;;5.47;5.07;;;;;;;;;;5031530;28;20681;-64
2023/08/05 06:33:09;;;;;;;7.53;5.80;;;;;;;;;;5031229;28;20204;-64
2023/08/05 06:35:37;;;;;;;5.50;4.97;;;;;;;;;;5031558;28;20235;-63
2023/08/05 06:38:03;;;;;;;6.20;5.80;;;;;;;;;;5031191;28;20266;-65
2023/08/05 06:40:30;;;;;;;5.90;5.50;;;;;;;39.67;nan;94439.88;5031428;28;20735;-64
2023/08/05 06:42:56;;;;;;;5.88;5.07;;;;;;;40.98;nan;94423.72;5031080;28;20230;-65
2023/08/05 06:45:23;;;;;;;6.13;5.53;;;;;;;42.29;nan;94422.84;5031505;28;20200;-65
2023/08/05 06:47:50;;;;;;;5.90;5.60;;;;;;;40.76;nan;94431.81;5031233;28;20200;-65
2023/08/05 06:50:17;;;;;;;7.50;5.70;;;;;;;;;;5031574;28;20231;-65
2023/08/05 06:52:44;;;;;;;6.20;5.70;;;;;;;;;;5030856;28;20277;-65
2023/08/05 06:55:12;;;;;;;7.13;6.40;;;;;;;41.19;nan;94419.34;5031400;28;20266;-65
2023/08/05 06:57:38;;;;;;;5.93;5.03;;;;;;;41.66;nan;94403.38;5030860;28;20196;-65
2023/08/05 07:00:06;;;;;;;5.57;5.22;;;;;;;40.12;nan;94413.00;5031258;28;20208;-65
2023/08/05 07:02:33;;;;;;;6.22;5.65;;;;;;;;;;5030242;28;20242;-65
2023/08/05 07:04:59;;;;;;;6.80;5.80;;;;;;;;;;5031037;28;20235;-66
2023/08/05 07:07:26;;;;;;;5.75;5.25;;;;;;;;;;5030916;28;20227;-65
2023/08/05 07:10:00;;;;;;;6.35;5.40;;;;;;;;;;5031133;28;20396;-64
2023/08/05 07:12:26;;;;;;;5.93;5.35;;;;;;;;;;5030650;28;20195;-65
2023/08/05 07:14:53;;;;;;;7.32;5.90;;;;;;;41.27;nan;94394.09;5031162;28;20293;-65
2023/08/05 07:17:20;;;;;;;5.88;5.47;;;;;;;;;;5030493;28;20210;-65
2023/08/05 07:19:47;;;;;;;9.30;5.47;;;;;;;;;;5031024;28;20753;-66
2023/08/05 07:22:13;;;;;;;6.40;5.88;;;;;;;;;;5030019;28;20282;-66
2023/08/05 07:24:40;;;;;;;10.20;5.93;;;;;;;40.75;nan;94386.78;5030617;28;20246;-65
2023/08/05 07:27:08;;;;;;;7.35;5.68;;;;;;;42.15;nan;94379.00;5018303;28;20696;-67
2023/08/05 07:29:34;;;;;;;7.90;5.80;;;;;;;42.38;nan;94378.50;5030979;28;20637;-65
2023/08/05 07:32:02;;;;;;;6.90;6.07;;;;;;;43.06;nan;94379.06;5030468;28;20200;-66
2023/08/05 07:34:31;;;;;;;6.40;5.70;;;;;;;43.27;nan;94379.88;5030637;28;20657;-65
2023/08/05 07:36:58;;;;;;;7.95;5.20;;;;;;;;;;5017784;28;20210;-66
2023/08/05 07:39:25;;;;;;;5.85;5.45;;;;;;;42.62;nan;94378.81;5030242;28;20203;-65
2023/08/05 07:41:52;;;;;;;6.78;6.13;;;;;;;42.32;nan;94378.78;5030222;28;20204;-64
2023/08/05 07:44:20;;;;;;;6.07;5.68;;;;;;;42.43;nan;94370.53;5029773;28;20289;-65
2023/08/05 07:46:47;;;;;;;6.10;5.20;;;;;;;41.36;nan;94360.50;5030354;28;20693;-65
2023/08/05 07:49:14;;;;;;;5.95;5.65;;;;;;;42.11;nan;94357.38;5029846;28;20563;-65
2023/08/05 07:51:41;;;;;;;8.88;5.93;;;;;;;42.59;nan;94355.28;5030455;28;20239;-65
2023/08/05 07:54:07;;;;;;;6.25;5.85;;;;;;;;;;5030225;28;20200;-64
2023/08/05 07:56:35;;;;;;;5.68;5.38;;;;;;;40.88;nan;94370.34;5030517;28;20210;-65
2023/08/05 07:59:03;;;;;;;5.65;5.25;;;;;;;41.08;nan;94362.47;5030198;28;20232;-65
2023/08/05 08:01:33;;;;;;;6.22;5.78;;;;;;;42.72;nan;94367.31;5029837;28;20294;-65
2023/08/05 08:04:02;;;;;;;6.30;5.70;;;;;;;;;;5029769;28;20281;-66
2023/08/05 08:06:31;;;;;;;6.97;6.45;;;;;;;44.98;nan;94359.69;5030360;28;20195;-66
2023/08/05 08:08:58;;;;;;;5.97;5.57;;;;;;;44.85;nan;94355.78;5029580;28;20735;-66
2023/08/05 08:11:25;;;;;;;9.13;5.53;;;;;;;43.73;nan;94356.47;5030097;28;20204;-66
2023/08/05 08:13:51;;;;;;;5.60;5.07;;;;;;;43.10;nan;94361.41;5029911;28;20220;-66
2023/08/05 08:16:18;;;;;;;6.80;5.95;;;;;;;42.09;nan;94369.38;5030468;28;20638;-65
2023/08/05 08:18:46;;;;;;;6.88;6.15;;;;;;;;;;5029771;28;20207;-66
2023/08/05 08:21:13;;;;;;;6.25;5.70;;;;;;;42.16;nan;94348.56;5030447;28;20211;-66
2023/08/05 08:23:39;;;;;;;6.40;6.00;;;;;;;42.77;nan;94348.63;5029433;28;20240;-66
2023/08/05 08:26:06;;;;;;;6.32;5.80;;;;;;;42.76;nan;94347.03;5040830;28;20681;-66
2023/08/05 08:28:33;;;;;;;6.45;6.05;;;;;;;42.93;nan;94342.22;5030375;28;20666;-66
2023/08/05 08:30:59;;;;;;;6.63;6.07;;;;;;;;;;5030231;28;20208;-65
2023/08/05 08:33:27;;;;;;;6.40;5.82;;;;;;;44.55;nan;94313.16;5029282;28;20326;-64
2023/08/05 08:35:55;;;;;;;6.13;5.60;;;;;;;44.07;nan;94345.06;5030201;28;20206;-66
2023/08/05 08:38:23;;;;;;;6.00;5.20;;;;;;;;;;5029293;28;20208;-66
2023/08/05 08:40:51;;;;;;;6.60;6.07;;;;;;;42.75;nan;94351.56;5030020;28;20298;-65
2023/08/05 08:43:18;;;;;;;6.28;5.78;;;;;;;42.74;nan;94343.81;5029413;28;20228;-66
2023/08/05 08:45:47;;;;;;;5.60;5.30;;;;;;;43.82;nan;94331.78;5029958;28;20299;-65
2023/08/05 08:48:15;;;;;;;6.38;5.88;;;;;;;42.54;nan;94339.28;5029860;28;20295;-66
2023/08/05 08:50:43;;;;;;;6.75;6.35;;;;;;;42.53;nan;94326.19;5033447;28;20243;-64
2023/08/05 08:53:13;;;;;;;7.57;6.60;;;;;;;42.09;nan;94329.31;5021077;28;20220;-67
2023/08/05 08:55:40;;;;;;;5.93;5.53;;;;;;;43.19;nan;94331.47;5033482;28;20243;-66
2023/08/05 08:58:07;;;;;;;7.20;6.55;;;;;;;43.60;nan;94319.56;5033380;28;20207;-66
2023/08/05 09:00:35;;;;;;;7.88;6.28;;;;;;;42.64;nan;94330.44;5033306;28;20231;-66
2023/08/05 09:03:02;;;;;;;6.80;6.30;;;;;;;41.71;nan;94320.69;5033335;28;20223;-65
2023/08/05 09:05:31;;;;;;;9.38;6.72;;;;;;;;;;5033066;28;20218;-64
2023/08/05 09:07:59;;;;;;;7.43;6.78;;;;;;;43.07;nan;94316.50;5033118;28;20239;-64
2023/08/05 09:10:27;;;;;;;8.45;6.63;;;;;;;42.93;nan;94328.84;5032803;28;20220;-65
2023/08/05 09:12:54;;;;;;;6.93;6.45;;;;;;;43.13;nan;94313.81;5033252;28;20257;-66
2023/08/05 09:15:21;;;;;;;7.75;7.07;;;;;;;;;;5032756;28;20231;-65
2023/08/05 09:17:48;;;;;;;6.88;6.38;;;;;;;40.71;nan;94327.81;5032879;28;20678;-64
2023/08/05 09:20:20;;;;;;;7.78;7.07;;;;;;;;;;5032699;28;20306;-65
2023/08/05 09:22:53;;;;;;;7.95;7.20;;;;;;;;;;5032717;28;20713;-65
2023/08/05 09:25:20;;;;;;;8.57;6.43;;;;;;;;;;5032624;28;20693;-65
2023/08/05 09:27:50;;;;;;;8.23;7.43;;;;;;;;;;5033208;28;20203;-66
2023/08/05 09:30:17;;;;;;;9.63;7.47;;;;;;;;;;5032378;28;20210;-66
2023/08/05 09:32:44;;;;;;;7.90;7.30;;;;;;;;;;5032584;28;20203;-65
2023/08/05 09:35:10;;;;;;;8.23;7.78;;;;;;;;;;5037421;28;20669;-66
2023/08/05 09:37:37;;;;;;;8.00;7.50;;;;;;;;;;5039479;28;20303;-66
2023/08/05 09:40:05;;;;;;;9.48;6.95;;;;;;;;;;5032466;28;20223;-65
2023/08/05 09:42:32;;;;;;;7.43;6.93;;;;;;;;;;5032662;28;20290;-65
2023/08/05 09:45:02;;;;;;;7.70;7.10;;;;;;;;;;5032378;28;20724;-66
2023/08/05 09:47:30;;;;;;;8.05;7.40;;;;;;;;;;5032188;28;20204;-65
2023/08/05 09:49:58;;;;;;;8.13;7.40;;;;;;;;;;5032786;28;20199;-66
2023/08/05 09:52:26;;;;;;;8.30;7.63;;;;;;;;;;5031926;28;20266;-66
2023/08/05 09:54:56;;;;;;;8.65;8.10;;;;;;;;;;5032830;28;20204;-66
2023/08/05 09:57:23;;;;;;;8.63;8.05;;;;;;;33.82;nan;94314.06;5032094;28;20215;-65
2023/08/05 09:59:53;;;;;;;8.82;8.20;;;;;;;;;;5032352;28;20634;-65
2023/08/05 10:02:24;;;;;;;7.85;7.35;;;;;;;;;;5031615;28;20214;-66
2023/08/05 10:04:53;;;;;;;8.65;7.20;;;;;;;;;;5031869;28;20672;-65
2023/08/05 10:07:20;;;;;;;7.43;6.90;;;;;;;;;;5031798;28;20200;-65
2023/08/05 10:09:47;;;;;;;8.20;7.47;;;;;;;;;;5032389;28;20203;-65
2023/08/05 10:12:14;;;;;;;8.13;7.47;;;;;;;;;;5031817;28;20199;-66
2023/08/05 10:14:40;;;;;;;8.40;7.47;;;;;;;;;;5032580;28;20200;-65
2023/08/05 10:17:07;;;;;;;7.95;7.13;;;;;;;;;;5031896;28;20227;-65
2023/08/05 10:19:35;;;;;;;9.15;6.75;;;;;;;;;;5032321;28;20246;-65
2023/08/05 10:22:09;;;;;;;8.07;7.43;;;;;;;;;;5030330;28;20231;-64
2023/08/05 10:24:50;;;;;;;9.27;8.68;;;;;;;;;;5025157;28;20735;-65
2023/08/05 10:27:16;;;;;;;8.15;7.57;;;;;;;;;;5019503;28;20571;-65
2023/08/05 10:29:51;;;;;;;6.55;6.15;;;;;;;;;;5031772;28;20203;-65
2023/08/05 10:32:18;;;;;;;6.68;6.18;;;;;;;;;;5031379;28;20290;-66
2023/08/05 10:35:06;;;;;;;7.25;6.70;;;;;;;;;;5031282;28;20289;-65
2023/08/05 10:37:47;;;;;;;7.03;6.55;;;;;;;;;;5031274;28;20654;-66
2023/08/05 10:40:35;;;;;;;6.70;6.10;;;;;;;;;;5019905;28;20203;-64
2023/08/05 10:43:01;;;;;;;7.00;6.40;;;;;;;;;;5030467;28;20249;-64
2023/08/05 10:45:28;;;;;;;7.80;7.30;;;;;;;;;;5031753;28;20230;-65
2023/08/05 10:47:54;;;;;;;7.15;6.75;;;;;;;;;;5031192;28;20693;-65
2023/08/05 10:50:21;;;;;;;7.90;7.32;;;;;;;;;;5031539;28;20261;-65
2023/08/05 10:52:50;;;;;;;6.78;6.18;;;;;;;;;;5030822;28;20251;-65
2023/08/05 10:55:24;;;;;;;7.97;6.90;;;;;;;;;;5031348;28;20203;-64
2023/08/05 10:57:54;;;;;;;8.27;7.68;;;;;;;;;;5031124;28;20269;-65
2023/08/05 11:00:22;;;;;;;7.22;6.55;;;;;;;;;;5031082;28;20204;-65
2023/08/05 11:02:49;;;;;;;7.88;7.38;;;;;;;;;;5031026;28;20563;-65
2023/08/05 11:05:16;;;;;;;7.72;7.03;;;;;;;;;;5031020;28;20615;-65
2023/08/05 11:07:43;;;;;;;6.95;6.55;;;;;;;;;;5031418;28;20231;-65
2023/08/05 11:10:11;;;;;;;7.05;6.40;;;;;;;;;;5030856;28;20597;-65
2023/08/05 11:12:40;;;;;;;7.82;7.22;;;;;;;;;;5031124;28;20207;-64
2023/08/05 11:15:07;;;;;;;7.32;6.68;;;;;;;;;;5033241;28;20300;-64
2023/08/05 11:17:33;;;;;;;7.20;6.72;;;;;;;;;;5031711;28;20287;-64
2023/08/05 11:20:00;;;;;;;7.38;6.97;;;;;;;;;;5030709;28;20211;-65
2023/08/05 11:22:26;;;;;;;8.20;7.60;;;;;;;;;;5031336;28;20231;-64
2023/08/05 11:24:57;;;;;;;8.40;7.60;;;;;;;32.58;nan;94195.81;5030593;28;20258;-65
2023/08/05 11:27:31;;;;;;;7.55;7.07;;;;;;;;;;5031514;28;20255;-63
2023/08/05 11:29:59;;;;;;;7.88;7.28;;;;;;;;;;5030750;28;21303;-64
2023/08/05 11:32:26;;;;;;;7.82;7.05;;;;;;;;;;5030678;28;20257;-65
2023/08/05 11:35:00;;;;;;;8.48;7.88;;;;;;;;;;5030257;28;20223;-66
2023/08/05 11:37:27;;;;;;;8.20;7.78;;;;;;;;;;5030396;28;20273;-64
2023/08/05 11:40:00;;;;;;;15.15;9.82;;;;;;;;;;5030041;28;20591;-65
2023/08/05 11:42:27;;;;;;;7.80;7.30;;;;;;;;;;5030211;28;20266;-65
2023/08/05 11:44:53;;;;;;;7.13;6.45;;;;;;;;;;5031607;28;20716;-64
2023/08/05 11:47:21;;;;;;;8.05;7.32;;;;;;;;;;5031337;28;20677;-64
2023/08/05 11:49:51;;;;;;;7.85;7.38;;;;;;;;;;5039107;28;20206;-65
2023/08/05 11:52:17;;;;;;;7.97;7.45;;;;;;;;;;5035920;28;20230;-65
2023/08/05 11:54:47;;;;;;;8.45;7.72;;;;;;;;;;5032152;28;20238;-66
2023/08/05 11:57:20;;;;;;;8.48;7.88;;;;;;;;;;5031367;28;20215;-64
2023/08/05 11:59:47;;;;;;;7.93;6.93;;;;;;;;;;5030457;28;20199;-65
2023/08/05 12:02:14;;;;;;;7.95;7.25;;;;;;;;;;5030096;28;20203;-65
2023/08/05 12:04:45;;;;;;;8.05;7.40;;;;;;;;;;5030137;28;20301;-65
2023/08/05 12:07:12;;;;;;;7.88;7.18;;;;;;;;;;5029994;28;20207;-64
2023/08/05 12:09:39;;;;;;;8.02;7.43;;;;;;;;;;5030875;28;20290;-65
2023/08/05 12:12:06;;;;;;;7.85;7.45;;;;;;;;;;5029750;28;20215;-64
2023/08/05 12:14:32;;;;;;;8.07;7.05;;;;;;;;;;5030843;28;20199;-64
2023/08/05 12:16:59;;;;;;;7.53;7.00;;;;;;;;;;5029650;28;20692;-65
2023/08/05 12:19:26;;;;;;;7.00;6.57;;;;;;;;;;5030199;28;20196;-64
2023/08/05 12:21:54;;;;;;;7.38;6.75;;;;;;;;;;5029705;28;20699;-65
2023/08/05 12:24:20;;;;;;;8.13;7.35;;;;;;;;;;5032574;28;20696;-66
2023/08/05 12:26:46;;;;;;;7.93;7.25;;;;;;;;;;5033726;28;20235;-64
2023/08/05 12:29:13;;;;;;;7.05;6.57;;;;;;;;;;5034118;28;20636;-65
2023/08/05 12:31:39;;;;;;;9.07;7.05;;;;;;;;;;5033790;28;20277;-66
2023/08/05 12:34:06;;;;;;;6.90;6.35;;;;;;;;;;5033979;28;20204;-65
2023/08/05 12:36:32;;;;;;;7.13;6.68;;;;;;;;;;5033479;28;20239;-64
2023/08/05 12:39:01;;;;;;;8.95;6.88;;;;;;;;;;5034311;28;20632;-65
2023/08/05 12:41:27;;;;;;;7.10;6.40;;;;;;;;;;5033306;28;20581;-65
2023/08/05 12:43:53;;;;;;;6.90;6.10;;;;;;;;;;5033902;28;20285;-65
2023/08/05 12:46:20;;;;;;;6.72;6.22;;;;;;;;;;5033360;28;20231;-65
2023/08/05 12:48:46;;;;;;;7.28;6.63;;;;;;;;;;5033912;28;20634;-64
2023/08/05 12:51:13;;;;;;;14.15;7.22;;;;;;;;;;5033754;28;20207;-65
2023/08/05 12:53:41;;;;;;;7.25;6.75;;;;;;;;;;5033442;28;20224;-65
2023/08/05 12:56:09;;;;;;;7.68;6.68;;;;;;;;;;5033774;28;20200;-65
2023/08/05 12:58:35;;;;;;;7.25;6.53;;;;;;;;;;5033685;28;20216;-66
2023/08/05 13:01:02;;;;;;;7.18;6.47;;;;;;;;;;5033609;28;20199;-64
2023/08/05 13:03:28;;;;;;;6.68;6.15;;;;;;;;;;5032667;28;20606;-64
2023/08/05 13:05:54;;;;;;;7.43;6.90;;;;;;;;;;5033286;28;20235;-65
2023/08/05 13:08:21;;;;;;;7.55;7.05;;;;;;;;;;5033339;28;20678;-65
2023/08/05 13:10:47;;;;;;;6.70;6.20;;;;;;;;;;5032846;28;20199;-64
2023/08/05 13:13:15;;;;;;;7.15;6.53;;;;;;;;;;5032978;28;20685;-65
2023/08/05 13:15:42;;;;;;;7.15;6.65;;;;;;;;;;5033456;28;20208;-65
2023/08/05 13:18:08;;;;;;;6.38;6.00;;;;;;;;;;5032876;28;20254;-65
2023/08/05 13:20:34;;;;;;;6.70;6.30;;;;;;;;;;5033201;28;20690;-66
2023/08/05 13:23:00;;;;;;;7.35;6.68;;;;;;;;;;5029673;28;20258;-65
2023/08/05 13:25:26;;;;;;;7.35;6.60;;;;;;;;;;5033186;28;20258;-65
2023/08/05 13:27:53;;;;;;;6.88;6.45;;;;;;;;;;5032495;28;20709;-64
2023/08/05 13:30:21;;;;;;;9.32;6.63;;;;;;;;;;5032724;28;20711;-64
2023/08/05 13:32:47;;;;;;;7.10;6.45;;;;;;;;;;5032310;28;20211;-65
2023/08/05 13:35:13;;;;;;;6.28;5.95;;;;;;;;;;5031605;28;20237;-64
2023/08/05 13:37:40;;;;;;;6.53;6.13;;;;;;;;;;5032822;28;20261;-65
2023/08/05 13:40:07;;;;;;;6.15;5.57;;;;;;;;;;5032898;28;20207;-64
2023/08/05 13:42:33;;;;;;;6.15;5.57;;;;;;;;;;5032332;28;20321;-65
2023/08/05 13:45:00;;;;;;;6.75;6.18;;;;;;;;;;5032696;28;20220;-64
2023/08/05 13:47:28;;;;;;;6.50;5.93;;;;;;;;;;5031904;28;20246;-64
2023/08/05 13:49:54;;;;;;;5.97;5.68;;;;;;;;;;5020290;28;20216;-65
2023/08/05 13:52:21;;;;;;;6.07;5.57;;;;;;;;;;5031828;28;20223;-65
2023/08/05 13:54:47;;;;;;;5.90;5.30;;;;;;;;;;5032509;28;20200;-65
2023/08/05 13:57:14;;;;;;;5.95;5.65;;;;;;;;;;5032134;28;20258;-64
2023/08/05 13:59:40;;;;;;;5.55;5.10;;;;;;;;;;5032534;28;20668;-65
2023/08/05 14:02:07;;;;;;;6.93;5.65;;;;;;;;;;5031698;28;20230;-64
2023/08/05 14:04:35;;;;;;;4.72;4.32;;;;;;;;;;5032234;28;20298;-64
2023/08/05 14:07:01;;;;;;;7.25;6.45;;;;;;;;;;5031838;28;20546;-65
2023/08/05 14:09:27;;;;;;;6.18;5.57;;;;;;;;;;5032615;28;20200;-64
2023/08/05 14:11:54;;;;;;;5.28;4.97;;;;;;;;;;5031636;28;20239;-64